createdAt,value
2023-03-24T00:01:28.627Z,98640.43
2023-03-24T00:06:54.422Z,98640.35
2023-03-24T00:12:19.046Z,98640.16
2023-03-24T00:17:43.301Z,98635.22
2023-03-24T00:23:08.605Z,98629.10
2023-03-24T00:28:37.279Z,98616.31
2023-03-24T00:34:03.166Z,98607.77
2023-03-24T00:39:27.188Z,98598.86
2023-03-24T00:44:54.213Z,98592.33
2023-03-24T00:50:20.936Z,98582.50
2023-03-24T00:55:48.512Z,98579.23
2023-03-24T01:01:13.305Z,98563.63
2023-03-24T01:06:38.208Z,98563.30
2023-03-24T01:12:05.927Z,98557.17
2023-03-24T01:17:30.023Z,98556.46
2023-03-24T01:22:54.155Z,98552.27
2023-03-24T01:28:24.796Z,98545.86
2023-03-24T01:33:49.390Z,98544.38
2023-03-24T01:39:13.101Z,98540.05
2023-03-24T01:44:38.767Z,98537.15
2023-03-24T01:50:05.545Z,98532.65
2023-03-24T01:55:32.503Z,98525.37
2023-03-24T02:00:58.463Z,98514.13
2023-03-24T02:06:49.468Z,98509.65
2023-03-24T02:12:14.468Z,98498.71
2023-03-24T02:17:45.527Z,98497.52
2023-03-24T02:23:35.009Z,98492.71
2023-03-24T02:29:48.355Z,98490.93
2023-03-24T02:35:36.148Z,98494.58
2023-03-24T02:41:18.341Z,98495.04
2023-03-24T02:46:50.163Z,98494.09
2023-03-24T02:52:24.176Z,98494.80
2023-03-24T02:58:01.032Z,98492.17
2023-03-24T03:03:52.494Z,98481.26
2023-03-24T03:09:21.847Z,98469.52
2023-03-24T03:14:53.380Z,98467.40
2023-03-24T03:20:23.526Z,98463.34
2023-03-24T03:25:52.713Z,98458.84
2023-03-24T03:31:24.095Z,98445.00
2023-03-24T03:36:58.152Z,98441.55
2023-03-24T03:42:23.881Z,98433.00
2023-03-24T03:47:49.491Z,98427.21
2023-03-24T03:53:17.760Z,98423.13
2023-03-24T03:58:42.818Z,98426.31
2023-03-24T04:04:30.259Z,98420.10
2023-03-24T04:10:45.277Z,98416.42
2023-03-24T04:16:23.432Z,98418.89
2023-03-24T04:22:50.018Z,98414.91
2023-03-24T04:28:16.044Z,98406.72
2023-03-24T04:33:49.101Z,98404.40
2023-03-24T04:39:18.530Z,98401.83
2023-03-24T04:44:51.816Z,98402.05
2023-03-24T04:50:46.070Z,98405.21
2023-03-24T04:56:29.278Z,98398.94
2023-03-24T05:02:07.787Z,98396.57
2023-03-24T05:07:53.836Z,98402.11
2023-03-24T05:13:19.377Z,98398.41
2023-03-24T05:18:47.432Z,98399.16
2023-03-24T05:24:12.952Z,98406.73
2023-03-24T05:29:38.213Z,98407.04
2023-03-24T05:35:04.407Z,98404.93
2023-03-24T05:40:31.714Z,98410.06
2023-03-24T05:46:08.176Z,98404.00
2023-03-24T05:51:32.373Z,98405.58
2023-03-24T05:57:02.627Z,98395.16
2023-03-24T06:02:27.642Z,98380.50
2023-03-24T06:07:58.934Z,98374.99
2023-03-24T06:13:24.096Z,98372.63
2023-03-24T06:18:52.874Z,98375.29
2023-03-24T06:24:38.143Z,98372.25
2023-03-24T06:30:07.226Z,98367.02
2023-03-24T06:35:32.802Z,98357.77
2023-03-24T06:41:03.152Z,98355.42
2023-03-24T06:46:29.789Z,98349.54
2023-03-24T06:51:54.652Z,98352.96
2023-03-24T06:57:20.050Z,98342.45
2023-03-24T07:03:04.269Z,98334.15
2023-03-24T07:08:37.107Z,98327.70
2023-03-24T07:14:09.906Z,98320.29
2023-03-24T07:19:36.262Z,98317.02
2023-03-24T07:25:20.434Z,98307.57
2023-03-24T07:30:51.623Z,98304.41
2023-03-24T07:36:19.427Z,98300.14
2023-03-24T07:41:43.977Z,98287.52
2023-03-24T07:47:29.150Z,98285.39
2023-03-24T07:52:54.300Z,98279.69
2023-03-24T07:58:19.051Z,98275.69
2023-03-24T08:03:58.630Z,98275.04
2023-03-24T08:09:44.108Z,98270.33
2023-03-24T08:15:10.450Z,98265.45
2023-03-24T08:25:59.014Z,98250.45
2023-03-24T08:31:23.082Z,98249.04
2023-03-24T08:36:47.788Z,98252.38
2023-03-24T08:42:12.668Z,98245.16
2023-03-24T08:47:37.709Z,98239.16
2023-03-24T08:53:02.790Z,98234.08
2023-03-24T08:58:27.363Z,98231.73
2023-03-24T09:03:52.397Z,98230.41
2023-03-24T09:09:16.836Z,98216.24
2023-03-24T09:14:42.565Z,98215.53
2023-03-24T09:20:12.166Z,98218.80
2023-03-24T09:25:36.295Z,98204.47
2023-03-24T09:31:03.197Z,98195.37
2023-03-24T09:36:28.615Z,98195.45
2023-03-24T09:41:56.478Z,98192.90
2023-03-24T09:47:37.570Z,98191.07
2023-03-24T09:53:23.166Z,98175.27
2023-03-24T09:58:53.776Z,98180.64
2023-03-24T10:04:21.656Z,98176.05
2023-03-24T10:09:53.737Z,98172.94
2023-03-24T10:15:37.108Z,98166.33
2023-03-24T10:21:18.289Z,98166.36
2023-03-24T10:26:55.724Z,98165.15
2023-03-24T10:32:25.633Z,98161.56
2023-03-24T10:37:52.728Z,98163.53
2023-03-24T10:43:21.567Z,98167.02
2023-03-24T10:48:48.637Z,98174.83
2023-03-24T10:54:21.713Z,98177.84
2023-03-24T10:59:58.270Z,98204.61
2023-03-24T11:05:30.936Z,98198.27
2023-03-24T11:10:56.709Z,98196.58
2023-03-24T11:16:37.731Z,98195.03
2023-03-24T11:22:06.109Z,98196.98
2023-03-24T11:27:32.213Z,98194.17
2023-03-24T11:32:58.745Z,98193.96
2023-03-24T11:38:31.734Z,98189.91
2023-03-24T11:44:23.073Z,98185.05
2023-03-24T11:49:58.656Z,98179.90
2023-03-24T11:55:42.734Z,98181.55
2023-03-24T12:01:12.583Z,98176.67
2023-03-24T12:06:57.317Z,98165.39
2023-03-24T12:12:42.882Z,98164.06
2023-03-24T12:18:16.268Z,98153.12
2023-03-24T12:24:02.718Z,98149.86
2023-03-24T12:29:54.870Z,98148.10
2023-03-24T12:35:32.409Z,98136.52
2023-03-24T12:41:25.300Z,98142.03
2023-03-24T12:47:22.835Z,98142.16
2023-03-24T12:58:43.362Z,98135.88
2023-03-24T13:04:21.511Z,98130.05
2023-03-24T13:09:46.842Z,98109.86
2023-03-24T13:15:17.938Z,98103.22
2023-03-24T13:20:49.987Z,98105.82
2023-03-24T13:26:27.207Z,98097.17
2023-03-24T13:32:24.603Z,98091.59
2023-03-24T13:37:57.843Z,98107.31
2023-03-24T13:43:30.041Z,98106.20
2023-03-24T13:49:00.624Z,98116.92
2023-03-24T13:54:28.058Z,98107.66
2023-03-24T14:00:19.297Z,98109.16
2023-03-24T14:06:00.096Z,98104.77
2023-03-24T14:11:38.758Z,98105.27
2023-03-24T14:17:07.081Z,98093.48
2023-03-24T14:22:36.646Z,98091.22
2023-03-24T14:28:18.200Z,98091.38
2023-03-24T14:33:54.699Z,98093.11
2023-03-24T14:39:28.549Z,98092.46
2023-03-24T14:44:53.985Z,98091.61
2023-03-24T14:50:22.880Z,98093.13
2023-03-24T14:55:49.229Z,98081.06
2023-03-24T15:01:15.072Z,98080.66
2023-03-24T15:06:47.359Z,98069.04
2023-03-24T15:12:11.884Z,98066.91
2023-03-24T15:17:36.164Z,98059.36
2023-03-24T15:23:09.284Z,98058.87
2023-03-24T15:28:34.101Z,98073.16
2023-03-24T15:34:25.581Z,98073.61
2023-03-24T15:39:57.045Z,98071.90
2023-03-24T15:45:51.033Z,98066.30
2023-03-24T15:51:17.400Z,98070.96
2023-03-24T15:56:42.799Z,98081.48
2023-03-24T16:02:19.132Z,98136.22
2023-03-24T16:07:43.587Z,98219.95
2023-03-24T16:13:16.223Z,98233.55
2023-03-24T16:18:46.600Z,98237.95
2023-03-24T16:24:11.191Z,98252.23
2023-03-24T16:29:37.380Z,98270.80
2023-03-24T16:35:03.233Z,98282.06
2023-03-24T16:40:36.677Z,98290.55
2023-03-24T16:46:01.895Z,98288.98
2023-03-24T16:51:27.588Z,98288.56
2023-03-24T16:56:52.023Z,98276.10
2023-03-24T17:02:19.927Z,98283.30
2023-03-24T17:07:44.843Z,98279.00
2023-03-24T17:13:08.922Z,98262.11
2023-03-24T17:18:33.612Z,98241.72
2023-03-24T17:23:57.598Z,98253.11
2023-03-24T17:29:23.151Z,98257.82
2023-03-24T17:34:48.422Z,98245.17
2023-03-24T17:40:15.839Z,98259.81
2023-03-24T17:45:43.337Z,98273.77
2023-03-24T17:51:07.797Z,98270.53
2023-03-24T17:56:32.527Z,98269.01
2023-03-24T18:01:56.322Z,98255.70
2023-03-24T18:07:21.400Z,98250.13
2023-03-24T18:12:46.604Z,98245.34
2023-03-24T18:18:10.866Z,98243.77
2023-03-24T18:23:37.228Z,98276.11
2023-03-24T18:29:01.424Z,98269.19
2023-03-24T18:34:26.964Z,98286.55
2023-03-24T18:39:51.975Z,98295.36
2023-03-24T18:45:19.919Z,98292.09
2023-03-24T18:50:44.189Z,98288.10
2023-03-24T18:56:09.127Z,98295.38
2023-03-24T19:01:33.584Z,98308.29
2023-03-24T19:06:57.849Z,98309.09
2023-03-24T19:12:22.808Z,98308.05
2023-03-24T19:17:47.992Z,98308.34
2023-03-24T19:23:33.580Z,98305.18
2023-03-24T19:29:04.108Z,98318.30
2023-03-24T19:34:28.744Z,98319.00
2023-03-24T19:39:54.512Z,98323.46
2023-03-24T19:45:21.288Z,98312.69
2023-03-24T19:50:47.014Z,98315.51
2023-03-24T19:56:13.509Z,98314.33
2023-03-24T20:01:38.577Z,98316.55
2023-03-24T20:07:03.761Z,98322.00
2023-03-24T20:12:28.244Z,98327.54
2023-03-24T20:17:56.501Z,98328.03
2023-03-24T20:23:22.717Z,98333.05
2023-03-24T20:28:48.403Z,98332.05
2023-03-24T20:34:12.434Z,98330.73
2023-03-24T20:39:36.833Z,98334.06
2023-03-24T20:45:01.370Z,98322.39
2023-03-24T20:50:28.335Z,98321.50
2023-03-24T20:56:07.080Z,98326.04
2023-03-24T21:01:36.485Z,98341.71
2023-03-24T21:07:01.520Z,98349.13
2023-03-24T21:12:25.954Z,98348.56
2023-03-24T21:17:51.000Z,98355.79
2023-03-24T21:23:19.211Z,98353.73
2023-03-24T21:28:44.900Z,98352.41
2023-03-24T21:34:09.438Z,98362.90
2023-03-24T21:39:34.015Z,98351.58
2023-03-24T21:44:58.174Z,98345.84
2023-03-24T21:50:26.081Z,98351.00
2023-03-24T21:56:05.281Z,98341.74
2023-03-24T22:01:31.387Z,98338.06
2023-03-24T22:06:56.725Z,98336.77
2023-03-24T22:12:21.103Z,98347.72
2023-03-24T22:17:45.425Z,98376.89
2023-03-24T22:23:09.918Z,98374.91
2023-03-24T22:28:36.568Z,98368.34
2023-03-24T22:34:01.572Z,98373.25
2023-03-24T22:39:26.354Z,98375.95
2023-03-24T22:44:50.516Z,98380.27
2023-03-24T22:50:14.837Z,98384.77
2023-03-24T22:55:39.628Z,98385.13
2023-03-24T23:01:06.698Z,98382.58
2023-03-24T23:06:31.401Z,98373.14
2023-03-24T23:11:55.514Z,98375.30
2023-03-24T23:17:19.852Z,98373.29
2023-03-24T23:22:43.566Z,98372.13
2023-03-24T23:28:07.864Z,98360.56
2023-03-24T23:33:33.430Z,98358.73
2023-03-24T23:38:57.944Z,98355.23
2023-03-24T23:44:21.849Z,98355.44
2023-03-24T23:49:45.909Z,98351.17
2023-03-24T23:55:13.473Z,98346.73
